AFR57AU LFPG-LFRS
Flight info
| Callsign | AFR57AU |
|---|---|
| Flight time | N/A |
| Altitude | 27000 |
| Route | LGL UT176 ROLEN UZ15 ARDOD A5 VALAX |
| Aircraft | BCS3/M-SBDE2E3GIRWXY/LB1 |
Departure
| Time | 2026-05-05 19:15 |
|---|---|
| Airport | Charles de Gaulle International Airport (LFPG) |
Arrival
| Time | N/A |
|---|---|
| Airport | Nantes Atlantique Airport (LFRS) |
| Time | Latitude | Longitude | Altitude | Speed | Heading |
|---|---|---|---|---|---|
| 2026-05-05 18:38 | 49.00205 | 2.58614 | 333 ft | 0 kts | 262° |
| 2026-05-05 19:05 | 49.00205 | 2.58623 | 332 ft | 2 kts | 262° |
| 2026-05-05 19:06 | 49.00207 | 2.58646 | 332 ft | 2 kts | 262° |
| 2026-05-05 19:06 | 49.00209 | 2.58668 | 332 ft | 2 kts | 262° |
| 2026-05-05 19:06 | 49.00211 | 2.58690 | 332 ft | 2 kts | 262° |
| 2026-05-05 19:06 | 49.00213 | 2.58712 | 332 ft | 2 kts | 262° |
| 2026-05-05 19:07 | 49.00214 | 2.58726 | 332 ft | 2 kts | 260° |
| 2026-05-05 19:07 | 49.00220 | 2.58744 | 332 ft | 1 kts | 223° |
| 2026-05-05 19:07 | 49.00232 | 2.58754 | 332 ft | 2 kts | 196° |
| 2026-05-05 19:07 | 49.00240 | 2.58756 | 332 ft | 1 kts | 175° |
| 2026-05-05 19:08 | 49.00246 | 2.58755 | 332 ft | 0 kts | 175° |
| 2026-05-05 19:09 | 49.00244 | 2.58755 | 332 ft | 3 kts | 175° |
| 2026-05-05 19:10 | 49.00185 | 2.58761 | 331 ft | 6 kts | 178° |
| 2026-05-05 19:10 | 49.00169 | 2.58763 | 331 ft | 3 kts | 176° |
| 2026-05-05 19:10 | 49.00108 | 2.58773 | 328 ft | 14 kts | 178° |
| 2026-05-05 19:10 | 49.00030 | 2.58685 | 326 ft | 15 kts | 262° |
| 2026-05-05 19:11 | 49.00023 | 2.58508 | 329 ft | 17 kts | 266° |
| 2026-05-05 19:11 | 49.00013 | 2.58307 | 332 ft | 20 kts | 266° |
| 2026-05-05 19:11 | 49.00000 | 2.58081 | 337 ft | 22 kts | 266° |
| 2026-05-05 19:11 | 48.99985 | 2.57833 | 342 ft | 24 kts | 268° |
| 2026-05-05 19:12 | 48.99972 | 2.57568 | 349 ft | 25 kts | 267° |
| 2026-05-05 19:12 | 48.99958 | 2.57305 | 354 ft | 21 kts | 266° |
| 2026-05-05 19:12 | 48.99946 | 2.57088 | 354 ft | 22 kts | 266° |
| 2026-05-05 19:12 | 48.99934 | 2.56833 | 350 ft | 25 kts | 266° |
| 2026-05-05 19:13 | 48.99918 | 2.56544 | 345 ft | 26 kts | 265° |
| 2026-05-05 19:13 | 48.99902 | 2.56270 | 340 ft | 26 kts | 266° |
| 2026-05-05 19:13 | 48.99886 | 2.56058 | 336 ft | 17 kts | 240° |
| 2026-05-05 19:13 | 48.99787 | 2.56024 | 335 ft | 13 kts | 175° |
| 2026-05-05 19:14 | 48.99772 | 2.56026 | 335 ft | 0 kts | 175° |
| 2026-05-05 19:14 | 48.99736 | 2.56031 | 336 ft | 13 kts | 175° |
| 2026-05-05 19:14 | 48.99617 | 2.56080 | 335 ft | 16 kts | 117° |
| 2026-05-05 19:14 | 48.99622 | 2.56286 | 339 ft | 40 kts | 85° |
| 2026-05-05 19:15 | 48.99663 | 2.57056 | 345 ft | 100 kts | 85° |
| 2026-05-05 19:15 | 48.99729 | 2.58358 | 357 ft | 143 kts | 84° |
| 2026-05-05 19:15 | 48.99778 | 2.59881 | 832 ft | 142 kts | 83° |
| 2026-05-05 19:15 | 48.99813 | 2.61458 | 1320 ft | 155 kts | 82° |
| 2026-05-05 19:16 | 48.99855 | 2.63113 | 1851 ft | 161 kts | 82° |
| 2026-05-05 19:16 | 48.99945 | 2.64821 | 2399 ft | 165 kts | 78° |
| 2026-05-05 19:16 | 49.00086 | 2.66413 | 2871 ft | 174 kts | 77° |
| 2026-05-05 19:16 | 49.00186 | 2.67567 | 3202 ft | 180 kts | 77° |
| 2026-05-05 19:17 | 49.00352 | 2.69530 | 3729 ft | 190 kts | 80° |
| 2026-05-05 19:17 | 49.00467 | 2.71457 | 4200 ft | 189 kts | 81° |
| 2026-05-05 19:17 | 49.00614 | 2.73561 | 4797 ft | 210 kts | 81° |
| 2026-05-05 19:17 | 49.00608 | 2.75880 | 5435 ft | 229 kts | 95° |
| 2026-05-05 19:18 | 49.00437 | 2.78356 | 6077 ft | 235 kts | 94° |
| 2026-05-05 19:18 | 49.00259 | 2.80882 | 6702 ft | 242 kts | 94° |
| 2026-05-05 19:18 | 49.00089 | 2.83547 | 7351 ft | 258 kts | 94° |
| 2026-05-05 19:18 | 48.99902 | 2.86385 | 7988 ft | 273 kts | 95° |
| 2026-05-05 19:19 | 48.99726 | 2.89239 | 8595 ft | 279 kts | 95° |
| 2026-05-05 19:19 | 48.99549 | 2.92230 | 9209 ft | 282 kts | 94° |
| 2026-05-05 19:19 | 48.99240 | 2.95207 | 9790 ft | 284 kts | 111° |
| 2026-05-05 19:19 | 48.97958 | 2.97455 | 10429 ft | 289 kts | 148° |
| 2026-05-05 19:20 | 48.95999 | 2.98286 | 11067 ft | 297 kts | 180° |
| 2026-05-05 19:20 | 48.93987 | 2.97395 | 11694 ft | 306 kts | 212° |
| 2026-05-05 19:20 | 48.92337 | 2.95190 | 12254 ft | 316 kts | 223° |
| 2026-05-05 19:20 | 48.90880 | 2.92596 | 12735 ft | 327 kts | 244° |
| 2026-05-05 19:21 | 48.90136 | 2.89288 | 13298 ft | 334 kts | 255° |
| 2026-05-05 19:21 | 48.89576 | 2.86037 | 13758 ft | 340 kts | 255° |
| 2026-05-05 19:21 | 48.88807 | 2.82716 | 14221 ft | 347 kts | 252° |
| 2026-05-05 19:21 | 48.88239 | 2.79454 | 14677 ft | 352 kts | 254° |
| 2026-05-05 19:22 | 48.87595 | 2.75976 | 15166 ft | 356 kts | 256° |
| 2026-05-05 19:22 | 48.87048 | 2.72953 | 15568 ft | 359 kts | 254° |
| 2026-05-05 19:22 | 48.86525 | 2.69959 | 15979 ft | 361 kts | 255° |
| 2026-05-05 19:22 | 48.86102 | 2.67616 | 16296 ft | 362 kts | 254° |
| 2026-05-05 19:23 | 48.85549 | 2.64506 | 16724 ft | 363 kts | 254° |
| 2026-05-05 19:23 | 48.84991 | 2.61355 | 17164 ft | 365 kts | 254° |
| 2026-05-05 19:23 | 48.84272 | 2.58035 | 17605 ft | 367 kts | 251° |
| 2026-05-05 19:23 | 48.83496 | 2.54309 | 18069 ft | 370 kts | 251° |
| 2026-05-05 19:24 | 48.82702 | 2.50599 | 18511 ft | 374 kts | 252° |
| 2026-05-05 19:24 | 48.81922 | 2.46991 | 18938 ft | 377 kts | 251° |
| 2026-05-05 19:24 | 48.81105 | 2.43151 | 19365 ft | 381 kts | 251° |
| 2026-05-05 19:24 | 48.80275 | 2.39265 | 19773 ft | 385 kts | 251° |
| 2026-05-05 19:25 | 48.79622 | 2.36245 | 20165 ft | 387 kts | 251° |
| 2026-05-05 19:25 | 48.78912 | 2.32944 | 20496 ft | 390 kts | 251° |